sensor_id;sensor_type;location;lat;lon;timestamp;P1;durP1;ratioP1;P2;durP2;ratioP2
15295;SDS011;7749;49.964;7.890;2023-05-15T00:02:25;3.80;;;3.50;;
15295;SDS011;7749;49.964;7.890;2023-05-15T00:04:53;4.77;;;3.73;;
15295;SDS011;7749;49.964;7.890;2023-05-15T00:07:21;4.43;;;3.87;;
15295;SDS011;7749;49.964;7.890;2023-05-15T00:09:48;3.90;;;3.60;;
15295;SDS011;7749;49.964;7.890;2023-05-15T00:12:16;4.30;;;3.70;;
15295;SDS011;7749;49.964;7.890;2023-05-15T00:14:44;3.97;;;3.67;;
15295;SDS011;7749;49.964;7.890;2023-05-15T00:17:11;3.80;;;3.30;;
15295;SDS011;7749;49.964;7.890;2023-05-15T00:19:39;5.77;;;3.77;;
15295;SDS011;7749;49.964;7.890;2023-05-15T00:22:06;4.20;;;3.80;;
15295;SDS011;7749;49.964;7.890;2023-05-15T00:24:34;3.90;;;3.43;;
15295;SDS011;7749;49.964;7.890;2023-05-15T00:27:02;3.60;;;3.30;;
15295;SDS011;7749;49.964;7.890;2023-05-15T00:29:30;3.73;;;3.43;;
15295;SDS011;7749;49.964;7.890;2023-05-15T00:31:57;5.97;;;3.50;;
15295;SDS011;7749;49.964;7.890;2023-05-15T00:34:25;4.00;;;3.60;;
15295;SDS011;7749;49.964;7.890;2023-05-15T00:36:52;3.70;;;3.40;;
15295;SDS011;7749;49.964;7.890;2023-05-15T00:39:19;5.77;;;3.53;;
15295;SDS011;7749;49.964;7.890;2023-05-15T00:41:47;3.90;;;3.50;;
15295;SDS011;7749;49.964;7.890;2023-05-15T00:44:15;4.70;;;4.00;;
15295;SDS011;7749;49.964;7.890;2023-05-15T00:46:44;4.33;;;3.73;;
15295;SDS011;7749;49.964;7.890;2023-05-15T00:49:12;5.17;;;3.37;;
15295;SDS011;7749;49.964;7.890;2023-05-15T00:51:40;8.43;;;4.10;;
15295;SDS011;7749;49.964;7.890;2023-05-15T00:54:09;4.23;;;3.83;;
15295;SDS011;7749;49.964;7.890;2023-05-15T00:56:37;4.30;;;3.90;;
15295;SDS011;7749;49.964;7.890;2023-05-15T00:59:04;4.40;;;3.83;;
15295;SDS011;7749;49.964;7.890;2023-05-15T01:01:33;4.00;;;3.40;;
15295;SDS011;7749;49.964;7.890;2023-05-15T01:04:01;5.00;;;3.80;;
15295;SDS011;7749;49.964;7.890;2023-05-15T01:06:29;4.80;;;3.80;;
15295;SDS011;7749;49.964;7.890;2023-05-15T01:08:58;4.07;;;3.67;;
15295;SDS011;7749;49.964;7.890;2023-05-15T01:11:30;4.30;;;3.90;;
15295;SDS011;7749;49.964;7.890;2023-05-15T01:14:02;4.33;;;3.93;;
15295;SDS011;7749;49.964;7.890;2023-05-15T01:16:31;5.80;;;4.10;;
15295;SDS011;7749;49.964;7.890;2023-05-15T01:18:59;4.80;;;4.40;;
15295;SDS011;7749;49.964;7.890;2023-05-15T01:21:38;4.80;;;4.40;;
15295;SDS011;7749;49.964;7.890;2023-05-15T01:27:21;4.63;;;4.23;;
15295;SDS011;7749;49.964;7.890;2023-05-15T01:30:21;5.10;;;4.60;;
15295;SDS011;7749;49.964;7.890;2023-05-15T01:32:55;5.60;;;5.10;;
15295;SDS011;7749;49.964;7.890;2023-05-15T01:35:30;7.17;;;5.90;;
15295;SDS011;7749;49.964;7.890;2023-05-15T01:40:34;6.53;;;5.93;;
15295;SDS011;7749;49.964;7.890;2023-05-15T01:43:04;6.27;;;5.70;;
15295;SDS011;7749;49.964;7.890;2023-05-15T01:45:35;5.80;;;5.30;;
15295;SDS011;7749;49.964;7.890;2023-05-15T01:48:05;5.53;;;5.03;;
15295;SDS011;7749;49.964;7.890;2023-05-15T01:50:34;6.13;;;5.40;;
15295;SDS011;7749;49.964;7.890;2023-05-15T01:53:04;5.40;;;4.90;;
15295;SDS011;7749;49.964;7.890;2023-05-15T01:55:37;6.17;;;5.67;;
15295;SDS011;7749;49.964;7.890;2023-05-15T01:58:07;6.03;;;5.53;;
15295;SDS011;7749;49.964;7.890;2023-05-15T02:00:35;5.63;;;5.23;;
15295;SDS011;7749;49.964;7.890;2023-05-15T02:03:04;7.20;;;5.60;;
15295;SDS011;7749;49.964;7.890;2023-05-15T02:05:33;7.03;;;5.37;;
15295;SDS011;7749;49.964;7.890;2023-05-15T02:08:01;6.13;;;5.63;;
15295;SDS011;7749;49.964;7.890;2023-05-15T02:10:30;6.23;;;5.67;;
15295;SDS011;7749;49.964;7.890;2023-05-15T02:12:59;7.20;;;6.60;;
15295;SDS011;7749;49.964;7.890;2023-05-15T02:15:27;6.97;;;6.37;;
15295;SDS011;7749;49.964;7.890;2023-05-15T02:17:56;6.60;;;5.97;;
15295;SDS011;7749;49.964;7.890;2023-05-15T02:20:23;7.10;;;6.50;;
15295;SDS011;7749;49.964;7.890;2023-05-15T02:22:50;7.30;;;6.67;;
15295;SDS011;7749;49.964;7.890;2023-05-15T02:25:18;7.33;;;6.73;;
15295;SDS011;7749;49.964;7.890;2023-05-15T02:28:07;8.33;;;7.40;;
15295;SDS011;7749;49.964;7.890;2023-05-15T02:30:48;7.90;;;7.17;;
15295;SDS011;7749;49.964;7.890;2023-05-15T02:36:14;9.00;;;8.10;;
15295;SDS011;7749;49.964;7.890;2023-05-15T02:38:46;8.33;;;7.53;;
15295;SDS011;7749;49.964;7.890;2023-05-15T02:41:16;8.37;;;7.53;;
15295;SDS011;7749;49.964;7.890;2023-05-15T02:43:45;9.53;;;8.70;;
15295;SDS011;7749;49.964;7.890;2023-05-15T02:46:14;9.23;;;8.43;;
15295;SDS011;7749;49.964;7.890;2023-05-15T02:48:43;10.40;;;9.40;;
15295;SDS011;7749;49.964;7.890;2023-05-15T02:51:13;9.70;;;8.80;;
15295;SDS011;7749;49.964;7.890;2023-05-15T02:53:40;10.43;;;9.37;;
15295;SDS011;7749;49.964;7.890;2023-05-15T02:56:08;10.40;;;9.37;;
15295;SDS011;7749;49.964;7.890;2023-05-15T02:58:36;13.70;;;9.77;;
15295;SDS011;7749;49.964;7.890;2023-05-15T03:01:05;10.27;;;9.17;;
15295;SDS011;7749;49.964;7.890;2023-05-15T03:03:32;10.50;;;9.50;;
15295;SDS011;7749;49.964;7.890;2023-05-15T03:06:00;11.23;;;10.00;;
15295;SDS011;7749;49.964;7.890;2023-05-15T03:08:27;11.20;;;10.07;;
15295;SDS011;7749;49.964;7.890;2023-05-15T03:10:55;11.53;;;10.53;;
15295;SDS011;7749;49.964;7.890;2023-05-15T03:13:22;11.30;;;10.30;;
15295;SDS011;7749;49.964;7.890;2023-05-15T03:15:50;12.00;;;10.73;;
15295;SDS011;7749;49.964;7.890;2023-05-15T03:18:18;12.00;;;10.83;;
15295;SDS011;7749;49.964;7.890;2023-05-15T03:20:46;11.70;;;10.50;;
15295;SDS011;7749;49.964;7.890;2023-05-15T03:23:15;12.30;;;11.10;;
15295;SDS011;7749;49.964;7.890;2023-05-15T03:25:42;11.10;;;10.17;;
15295;SDS011;7749;49.964;7.890;2023-05-15T03:28:10;11.20;;;10.13;;
15295;SDS011;7749;49.964;7.890;2023-05-15T03:30:37;9.10;;;8.30;;
15295;SDS011;7749;49.964;7.890;2023-05-15T03:33:04;10.43;;;7.77;;
15295;SDS011;7749;49.964;7.890;2023-05-15T03:35:32;8.87;;;8.07;;
15295;SDS011;7749;49.964;7.890;2023-05-15T03:38:00;8.83;;;8.03;;
15295;SDS011;7749;49.964;7.890;2023-05-15T03:40:27;11.40;;;10.30;;
15295;SDS011;7749;49.964;7.890;2023-05-15T03:42:54;10.23;;;9.43;;
15295;SDS011;7749;49.964;7.890;2023-05-15T03:45:22;10.23;;;9.17;;
15295;SDS011;7749;49.964;7.890;2023-05-15T03:47:50;10.47;;;9.57;;
15295;SDS011;7749;49.964;7.890;2023-05-15T03:50:17;9.47;;;8.67;;
15295;SDS011;7749;49.964;7.890;2023-05-15T03:52:44;9.77;;;8.87;;
15295;SDS011;7749;49.964;7.890;2023-05-15T03:55:12;10.50;;;9.37;;
15295;SDS011;7749;49.964;7.890;2023-05-15T03:57:40;9.93;;;8.97;;
15295;SDS011;7749;49.964;7.890;2023-05-15T04:00:08;10.50;;;9.50;;
15295;SDS011;7749;49.964;7.890;2023-05-15T04:02:37;11.33;;;10.13;;
15295;SDS011;7749;49.964;7.890;2023-05-15T04:05:05;10.97;;;9.97;;
15295;SDS011;7749;49.964;7.890;2023-05-15T04:07:33;11.93;;;10.73;;
15295;SDS011;7749;49.964;7.890;2023-05-15T04:10:02;12.73;;;11.53;;
15295;SDS011;7749;49.964;7.890;2023-05-15T04:12:33;12.60;;;11.40;;
15295;SDS011;7749;49.964;7.890;2023-05-15T04:15:14;14.07;;;11.77;;
15295;SDS011;7749;49.964;7.890;2023-05-15T04:17:51;12.97;;;11.77;;
15295;SDS011;7749;49.964;7.890;2023-05-15T04:20:21;12.87;;;11.63;;
15295;SDS011;7749;49.964;7.890;2023-05-15T04:22:54;13.23;;;11.93;;
15295;SDS011;7749;49.964;7.890;2023-05-15T04:25:28;14.10;;;12.77;;
15295;SDS011;7749;49.964;7.890;2023-05-15T04:27:57;14.43;;;13.03;;
15295;SDS011;7749;49.964;7.890;2023-05-15T04:30:24;14.33;;;12.13;;
15295;SDS011;7749;49.964;7.890;2023-05-15T04:32:52;15.17;;;12.93;;
15295;SDS011;7749;49.964;7.890;2023-05-15T04:35:27;14.07;;;12.57;;
15295;SDS011;7749;49.964;7.890;2023-05-15T04:37:55;14.10;;;12.80;;
15295;SDS011;7749;49.964;7.890;2023-05-15T04:40:23;14.03;;;12.43;;
15295;SDS011;7749;49.964;7.890;2023-05-15T04:42:51;15.07;;;12.90;;
15295;SDS011;7749;49.964;7.890;2023-05-15T04:45:19;14.97;;;12.67;;
15295;SDS011;7749;49.964;7.890;2023-05-15T04:47:46;14.73;;;12.37;;
15295;SDS011;7749;49.964;7.890;2023-05-15T04:50:14;15.30;;;13.70;;
15295;SDS011;7749;49.964;7.890;2023-05-15T04:52:41;15.63;;;14.03;;
15295;SDS011;7749;49.964;7.890;2023-05-15T04:55:09;15.70;;;13.93;;
15295;SDS011;7749;49.964;7.890;2023-05-15T04:57:40;17.23;;;15.43;;
15295;SDS011;7749;49.964;7.890;2023-05-15T05:00:07;16.13;;;13.97;;
15295;SDS011;7749;49.964;7.890;2023-05-15T05:02:38;17.57;;;14.47;;
15295;SDS011;7749;49.964;7.890;2023-05-15T05:05:06;16.33;;;14.13;;
15295;SDS011;7749;49.964;7.890;2023-05-15T05:07:35;16.90;;;15.10;;
15295;SDS011;7749;49.964;7.890;2023-05-15T05:10:03;17.70;;;15.80;;
15295;SDS011;7749;49.964;7.890;2023-05-15T05:12:32;17.87;;;15.83;;
15295;SDS011;7749;49.964;7.890;2023-05-15T05:14:59;22.77;;;16.17;;
15295;SDS011;7749;49.964;7.890;2023-05-15T05:17:29;19.33;;;15.63;;
15295;SDS011;7749;49.964;7.890;2023-05-15T05:19:57;17.17;;;15.00;;
15295;SDS011;7749;49.964;7.890;2023-05-15T05:22:25;19.77;;;15.57;;
15295;SDS011;7749;49.964;7.890;2023-05-15T05:24:52;20.40;;;16.43;;
15295;SDS011;7749;49.964;7.890;2023-05-15T05:27:21;19.60;;;15.63;;
15295;SDS011;7749;49.964;7.890;2023-05-15T05:29:48;20.53;;;16.30;;
15295;SDS011;7749;49.964;7.890;2023-05-15T05:32:26;19.93;;;16.57;;
15295;SDS011;7749;49.964;7.890;2023-05-15T05:34:54;21.00;;;17.23;;
15295;SDS011;7749;49.964;7.890;2023-05-15T05:37:21;28.53;;;19.97;;
15295;SDS011;7749;49.964;7.890;2023-05-15T05:39:49;26.17;;;21.13;;
15295;SDS011;7749;49.964;7.890;2023-05-15T05:42:17;24.27;;;20.47;;
15295;SDS011;7749;49.964;7.890;2023-05-15T05:44:44;30.03;;;22.33;;
15295;SDS011;7749;49.964;7.890;2023-05-15T05:47:11;26.33;;;19.43;;
15295;SDS011;7749;49.964;7.890;2023-05-15T05:49:41;24.93;;;19.70;;
15295;SDS011;7749;49.964;7.890;2023-05-15T05:52:09;20.63;;;17.53;;
15295;SDS011;7749;49.964;7.890;2023-05-15T05:54:37;20.30;;;16.67;;
15295;SDS011;7749;49.964;7.890;2023-05-15T05:57:04;21.67;;;17.93;;
15295;SDS011;7749;49.964;7.890;2023-05-15T05:59:33;25.80;;;20.17;;
15295;SDS011;7749;49.964;7.890;2023-05-15T06:02:01;26.73;;;20.77;;
15295;SDS011;7749;49.964;7.890;2023-05-15T06:06:59;33.20;;;28.13;;
15295;SDS011;7749;49.964;7.890;2023-05-15T06:09:27;30.57;;;26.20;;
15295;SDS011;7749;49.964;7.890;2023-05-15T06:11:55;34.30;;;28.33;;
15295;SDS011;7749;49.964;7.890;2023-05-15T06:14:22;36.90;;;28.17;;
15295;SDS011;7749;49.964;7.890;2023-05-15T06:16:50;36.67;;;28.10;;
15295;SDS011;7749;49.964;7.890;2023-05-15T06:19:18;41.83;;;30.87;;
15295;SDS011;7749;49.964;7.890;2023-05-15T06:21:47;40.23;;;27.70;;
15295;SDS011;7749;49.964;7.890;2023-05-15T06:24:15;36.33;;;29.63;;
15295;SDS011;7749;49.964;7.890;2023-05-15T06:26:42;38.93;;;29.97;;
15295;SDS011;7749;49.964;7.890;2023-05-15T06:29:10;38.37;;;29.43;;
15295;SDS011;7749;49.964;7.890;2023-05-15T06:31:38;39.63;;;29.73;;
15295;SDS011;7749;49.964;7.890;2023-05-15T06:34:05;42.20;;;30.77;;
15295;SDS011;7749;49.964;7.890;2023-05-15T06:36:33;36.97;;;29.20;;
15295;SDS011;7749;49.964;7.890;2023-05-15T06:39:03;39.67;;;28.77;;
15295;SDS011;7749;49.964;7.890;2023-05-15T06:41:31;43.30;;;30.97;;
15295;SDS011;7749;49.964;7.890;2023-05-15T06:43:59;41.77;;;30.60;;
15295;SDS011;7749;49.964;7.890;2023-05-15T06:46:27;42.47;;;29.87;;
15295;SDS011;7749;49.964;7.890;2023-05-15T06:48:54;40.80;;;30.23;;
15295;SDS011;7749;49.964;7.890;2023-05-15T06:51:22;41.60;;;31.40;;
15295;SDS011;7749;49.964;7.890;2023-05-15T06:53:50;43.57;;;31.10;;
15295;SDS011;7749;49.964;7.890;2023-05-15T06:56:17;44.00;;;31.50;;
15295;SDS011;7749;49.964;7.890;2023-05-15T06:59:38;42.80;;;30.90;;
15295;SDS011;7749;49.964;7.890;2023-05-15T07:02:30;42.20;;;29.67;;
15295;SDS011;7749;49.964;7.890;2023-05-15T07:05:10;42.20;;;31.90;;
15295;SDS011;7749;49.964;7.890;2023-05-15T07:07:57;41.60;;;31.40;;
15295;SDS011;7749;49.964;7.890;2023-05-15T07:10:28;40.80;;;29.70;;
15295;SDS011;7749;49.964;7.890;2023-05-15T07:13:15;40.13;;;29.43;;
15295;SDS011;7749;49.964;7.890;2023-05-15T07:15:53;38.67;;;28.70;;
15295;SDS011;7749;49.964;7.890;2023-05-15T07:18:35;37.10;;;27.60;;
15295;SDS011;7749;49.964;7.890;2023-05-15T07:21:08;37.27;;;27.93;;
15295;SDS011;7749;49.964;7.890;2023-05-15T07:23:49;39.80;;;28.67;;
15295;SDS011;7749;49.964;7.890;2023-05-15T07:26:17;33.80;;;27.33;;
15295;SDS011;7749;49.964;7.890;2023-05-15T07:29:13;35.93;;;27.07;;
15295;SDS011;7749;49.964;7.890;2023-05-15T07:31:45;35.57;;;27.27;;
15295;SDS011;7749;49.964;7.890;2023-05-15T07:34:12;33.33;;;25.70;;
15295;SDS011;7749;49.964;7.890;2023-05-15T07:36:43;34.13;;;26.63;;
15295;SDS011;7749;49.964;7.890;2023-05-15T07:39:10;35.17;;;27.20;;
15295;SDS011;7749;49.964;7.890;2023-05-15T07:41:41;35.27;;;26.33;;
15295;SDS011;7749;49.964;7.890;2023-05-15T07:44:15;33.63;;;26.37;;
15295;SDS011;7749;49.964;7.890;2023-05-15T07:46:45;30.17;;;24.23;;
15295;SDS011;7749;49.964;7.890;2023-05-15T07:49:16;34.93;;;26.03;;
15295;SDS011;7749;49.964;7.890;2023-05-15T07:51:46;32.23;;;27.03;;
15295;SDS011;7749;49.964;7.890;2023-05-15T07:54:17;35.33;;;26.00;;
15295;SDS011;7749;49.964;7.890;2023-05-15T07:56:47;32.67;;;25.33;;
15295;SDS011;7749;49.964;7.890;2023-05-15T07:59:35;33.13;;;25.27;;
15295;SDS011;7749;49.964;7.890;2023-05-15T08:02:50;29.73;;;23.53;;
15295;SDS011;7749;49.964;7.890;2023-05-15T08:05:17;33.07;;;24.03;;
15295;SDS011;7749;49.964;7.890;2023-05-15T08:07:45;29.23;;;23.50;;
15295;SDS011;7749;49.964;7.890;2023-05-15T08:10:12;31.38;;;25.45;;
15295;SDS011;7749;49.964;7.890;2023-05-15T08:12:39;32.07;;;24.83;;
15295;SDS011;7749;49.964;7.890;2023-05-15T08:15:11;33.33;;;25.25;;
15295;SDS011;7749;49.964;7.890;2023-05-15T08:17:39;29.83;;;24.58;;
15295;SDS011;7749;49.964;7.890;2023-05-15T08:20:07;32.97;;;25.50;;
15295;SDS011;7749;49.964;7.890;2023-05-15T08:22:35;31.65;;;24.17;;
15295;SDS011;7749;49.964;7.890;2023-05-15T08:25:02;31.38;;;24.40;;
15295;SDS011;7749;49.964;7.890;2023-05-15T08:27:31;29.02;;;24.20;;
15295;SDS011;7749;49.964;7.890;2023-05-15T08:29:59;30.63;;;24.88;;
15295;SDS011;7749;49.964;7.890;2023-05-15T08:32:26;29.55;;;24.30;;
15295;SDS011;7749;49.964;7.890;2023-05-15T08:34:54;30.52;;;24.65;;
15295;SDS011;7749;49.964;7.890;2023-05-15T08:37:21;27.25;;;22.23;;
15295;SDS011;7749;49.964;7.890;2023-05-15T08:39:48;26.75;;;22.80;;
15295;SDS011;7749;49.964;7.890;2023-05-15T08:42:32;28.55;;;23.08;;
15295;SDS011;7749;49.964;7.890;2023-05-15T08:45:03;26.10;;;22.35;;
15295;SDS011;7749;49.964;7.890;2023-05-15T08:47:34;29.00;;;23.00;;
15295;SDS011;7749;49.964;7.890;2023-05-15T08:50:06;30.58;;;23.92;;
15295;SDS011;7749;49.964;7.890;2023-05-15T08:52:40;28.88;;;23.15;;
15295;SDS011;7749;49.964;7.890;2023-05-15T08:55:08;27.63;;;22.65;;
15295;SDS011;7749;49.964;7.890;2023-05-15T08:57:36;27.10;;;22.08;;
15295;SDS011;7749;49.964;7.890;2023-05-15T09:00:05;23.83;;;21.00;;
15295;SDS011;7749;49.964;7.890;2023-05-15T09:02:35;25.70;;;21.35;;
15295;SDS011;7749;49.964;7.890;2023-05-15T09:05:04;27.05;;;22.00;;
15295;SDS011;7749;49.964;7.890;2023-05-15T09:07:32;26.05;;;21.50;;
15295;SDS011;7749;49.964;7.890;2023-05-15T09:10:00;27.10;;;22.40;;
15295;SDS011;7749;49.964;7.890;2023-05-15T09:12:30;24.58;;;21.90;;
15295;SDS011;7749;49.964;7.890;2023-05-15T09:17:56;25.33;;;22.20;;
15295;SDS011;7749;49.964;7.890;2023-05-15T09:22:57;25.02;;;20.25;;
15295;SDS011;7749;49.964;7.890;2023-05-15T09:25:35;25.13;;;22.50;;
15295;SDS011;7749;49.964;7.890;2023-05-15T09:28:05;23.48;;;20.65;;
15295;SDS011;7749;49.964;7.890;2023-05-15T09:30:35;26.63;;;22.25;;
15295;SDS011;7749;49.964;7.890;2023-05-15T09:33:03;23.80;;;21.27;;
15295;SDS011;7749;49.964;7.890;2023-05-15T09:35:35;25.52;;;20.65;;
15295;SDS011;7749;49.964;7.890;2023-05-15T09:38:07;25.02;;;21.13;;
15295;SDS011;7749;49.964;7.890;2023-05-15T09:40:36;24.50;;;21.90;;
15295;SDS011;7749;49.964;7.890;2023-05-15T09:43:04;26.50;;;20.95;;
15295;SDS011;7749;49.964;7.890;2023-05-15T09:45:32;24.65;;;21.98;;
15295;SDS011;7749;49.964;7.890;2023-05-15T09:48:00;27.90;;;22.00;;
15295;SDS011;7749;49.964;7.890;2023-05-15T09:50:35;24.77;;;22.00;;
15295;SDS011;7749;49.964;7.890;2023-05-15T09:53:04;23.60;;;21.10;;
15295;SDS011;7749;49.964;7.890;2023-05-15T09:55:32;23.25;;;20.85;;
15295;SDS011;7749;49.964;7.890;2023-05-15T09:58:04;23.63;;;20.02;;
15295;SDS011;7749;49.964;7.890;2023-05-15T10:00:36;23.05;;;20.00;;
15295;SDS011;7749;49.964;7.890;2023-05-15T10:03:15;22.25;;;19.95;;
15295;SDS011;7749;49.964;7.890;2023-05-15T10:05:45;21.30;;;19.02;;
15295;SDS011;7749;49.964;7.890;2023-05-15T10:08:13;22.50;;;20.08;;
15295;SDS011;7749;49.964;7.890;2023-05-15T10:10:41;25.38;;;20.83;;
15295;SDS011;7749;49.964;7.890;2023-05-15T10:13:09;21.90;;;19.70;;
15295;SDS011;7749;49.964;7.890;2023-05-15T10:15:37;23.05;;;19.50;;
15295;SDS011;7749;49.964;7.890;2023-05-15T10:18:05;22.38;;;20.27;;
15295;SDS011;7749;49.964;7.890;2023-05-15T10:20:34;21.30;;;19.13;;
15295;SDS011;7749;49.964;7.890;2023-05-15T10:23:03;22.58;;;17.73;;
15295;SDS011;7749;49.964;7.890;2023-05-15T10:25:41;20.02;;;18.02;;
15295;SDS011;7749;49.964;7.890;2023-05-15T10:28:16;20.60;;;18.55;;
15295;SDS011;7749;49.964;7.890;2023-05-15T10:30:44;22.00;;;19.63;;
15295;SDS011;7749;49.964;7.890;2023-05-15T10:33:12;22.20;;;19.95;;
15295;SDS011;7749;49.964;7.890;2023-05-15T10:35:41;21.88;;;19.20;;
15295;SDS011;7749;49.964;7.890;2023-05-15T10:38:08;22.98;;;20.67;;
15295;SDS011;7749;49.964;7.890;2023-05-15T10:40:38;22.27;;;19.98;;
15295;SDS011;7749;49.964;7.890;2023-05-15T10:43:08;22.30;;;19.88;;
15295;SDS011;7749;49.964;7.890;2023-05-15T10:45:37;21.15;;;18.95;;
15295;SDS011;7749;49.964;7.890;2023-05-15T10:48:05;22.17;;;18.48;;
15295;SDS011;7749;49.964;7.890;2023-05-15T10:50:37;23.73;;;19.40;;
15295;SDS011;7749;49.964;7.890;2023-05-15T10:53:05;22.42;;;19.45;;
15295;SDS011;7749;49.964;7.890;2023-05-15T10:55:35;19.95;;;17.92;;
15295;SDS011;7749;49.964;7.890;2023-05-15T10:58:07;20.90;;;18.90;;
15295;SDS011;7749;49.964;7.890;2023-05-15T11:00:44;20.83;;;18.58;;
15295;SDS011;7749;49.964;7.890;2023-05-15T11:03:12;21.27;;;19.10;;
15295;SDS011;7749;49.964;7.890;2023-05-15T11:08:35;21.63;;;19.42;;
15295;SDS011;7749;49.964;7.890;2023-05-15T11:11:04;19.50;;;17.60;;
15295;SDS011;7749;49.964;7.890;2023-05-15T11:22:15;17.85;;;16.00;;
15295;SDS011;7749;49.964;7.890;2023-05-15T11:25:03;17.10;;;15.32;;
15295;SDS011;7749;49.964;7.890;2023-05-15T11:27:33;16.05;;;14.65;;
15295;SDS011;7749;49.964;7.890;2023-05-15T11:35:32;15.05;;;13.65;;
15295;SDS011;7749;49.964;7.890;2023-05-15T11:43:16;14.55;;;13.20;;
15295;SDS011;7749;49.964;7.890;2023-05-15T11:46:07;15.23;;;13.82;;
15295;SDS011;7749;49.964;7.890;2023-05-15T11:51:18;13.38;;;12.05;;
15295;SDS011;7749;49.964;7.890;2023-05-15T11:53:45;13.65;;;12.43;;
15295;SDS011;7749;49.964;7.890;2023-05-15T11:56:18;14.00;;;12.68;;
15295;SDS011;7749;49.964;7.890;2023-05-15T11:58:48;13.95;;;12.52;;
15295;SDS011;7749;49.964;7.890;2023-05-15T12:01:16;13.60;;;12.30;;
15295;SDS011;7749;49.964;7.890;2023-05-15T12:03:45;12.75;;;11.50;;
15295;SDS011;7749;49.964;7.890;2023-05-15T12:31:03;7.28;;;6.60;;
15295;SDS011;7749;49.964;7.890;2023-05-15T12:33:31;8.43;;;7.63;;
15295;SDS011;7749;49.964;7.890;2023-05-15T12:35:58;9.20;;;8.30;;
15295;SDS011;7749;49.964;7.890;2023-05-15T12:38:29;7.97;;;7.20;;
15295;SDS011;7749;49.964;7.890;2023-05-15T12:40:56;9.35;;;7.45;;
15295;SDS011;7749;49.964;7.890;2023-05-15T12:43:24;7.55;;;6.85;;
15295;SDS011;7749;49.964;7.890;2023-05-15T12:45:53;9.70;;;8.68;;
15295;SDS011;7749;49.964;7.890;2023-05-15T12:48:21;8.82;;;7.53;;
15295;SDS011;7749;49.964;7.890;2023-05-15T12:50:49;9.07;;;8.27;;
15295;SDS011;7749;49.964;7.890;2023-05-15T12:53:17;7.95;;;7.20;;
15295;SDS011;7749;49.964;7.890;2023-05-15T12:55:47;13.48;;;7.30;;
15295;SDS011;7749;49.964;7.890;2023-05-15T12:58:16;7.75;;;7.15;;
15295;SDS011;7749;49.964;7.890;2023-05-15T13:00:49;8.90;;;8.00;;
15295;SDS011;7749;49.964;7.890;2023-05-15T13:03:19;7.70;;;7.00;;
15295;SDS011;7749;49.964;7.890;2023-05-15T13:05:47;8.75;;;7.80;;
15295;SDS011;7749;49.964;7.890;2023-05-15T13:08:15;9.73;;;8.88;;
15295;SDS011;7749;49.964;7.890;2023-05-15T13:10:44;8.40;;;7.70;;
15295;SDS011;7749;49.964;7.890;2023-05-15T13:13:13;9.75;;;8.68;;
15295;SDS011;7749;49.964;7.890;2023-05-15T13:15:43;9.00;;;8.25;;
15295;SDS011;7749;49.964;7.890;2023-05-15T13:18:13;8.27;;;7.68;;
15295;SDS011;7749;49.964;7.890;2023-05-15T13:20:45;10.50;;;9.68;;
15295;SDS011;7749;49.964;7.890;2023-05-15T13:23:16;10.88;;;9.85;;
15295;SDS011;7749;49.964;7.890;2023-05-15T13:25:48;10.63;;;9.52;;
15295;SDS011;7749;49.964;7.890;2023-05-15T13:28:15;9.80;;;8.90;;
15295;SDS011;7749;49.964;7.890;2023-05-15T13:30:42;8.88;;;8.07;;
15295;SDS011;7749;49.964;7.890;2023-05-15T13:33:10;10.20;;;9.40;;
15295;SDS011;7749;49.964;7.890;2023-05-15T13:35:41;9.52;;;8.88;;
15295;SDS011;7749;49.964;7.890;2023-05-15T13:38:09;10.13;;;8.93;;
15295;SDS011;7749;49.964;7.890;2023-05-15T13:40:37;7.78;;;7.07;;
15295;SDS011;7749;49.964;7.890;2023-05-15T13:43:05;8.65;;;7.47;;
15295;SDS011;7749;49.964;7.890;2023-05-15T13:45:32;8.88;;;7.63;;
15295;SDS011;7749;49.964;7.890;2023-05-15T13:48:00;7.22;;;6.55;;
15295;SDS011;7749;49.964;7.890;2023-05-15T13:50:28;7.22;;;6.47;;
15295;SDS011;7749;49.964;7.890;2023-05-15T13:52:55;6.70;;;6.03;;
15295;SDS011;7749;49.964;7.890;2023-05-15T13:55:25;6.80;;;5.90;;
15295;SDS011;7749;49.964;7.890;2023-05-15T13:57:53;8.50;;;6.07;;
15295;SDS011;7749;49.964;7.890;2023-05-15T14:00:23;6.43;;;5.93;;
15295;SDS011;7749;49.964;7.890;2023-05-15T14:02:51;8.10;;;6.82;;
15295;SDS011;7749;49.964;7.890;2023-05-15T14:05:19;7.35;;;6.70;;
15295;SDS011;7749;49.964;7.890;2023-05-15T14:07:46;8.20;;;6.95;;
15295;SDS011;7749;49.964;7.890;2023-05-15T14:10:14;9.27;;;6.97;;
15295;SDS011;7749;49.964;7.890;2023-05-15T14:12:41;12.32;;;7.78;;
15295;SDS011;7749;49.964;7.890;2023-05-15T14:15:09;8.52;;;7.72;;
15295;SDS011;7749;49.964;7.890;2023-05-15T14:17:38;7.88;;;7.28;;
15295;SDS011;7749;49.964;7.890;2023-05-15T14:20:06;11.15;;;8.30;;
15295;SDS011;7749;49.964;7.890;2023-05-15T14:22:36;9.07;;;8.07;;
15295;SDS011;7749;49.964;7.890;2023-05-15T14:25:13;7.47;;;6.88;;
15295;SDS011;7749;49.964;7.890;2023-05-15T14:27:41;7.60;;;6.45;;
15295;SDS011;7749;49.964;7.890;2023-05-15T14:30:09;6.05;;;5.55;;
15295;SDS011;7749;49.964;7.890;2023-05-15T14:32:37;6.35;;;5.72;;
15295;SDS011;7749;49.964;7.890;2023-05-15T14:35:04;5.65;;;5.15;;
15295;SDS011;7749;49.964;7.890;2023-05-15T14:37:35;5.35;;;4.88;;
15295;SDS011;7749;49.964;7.890;2023-05-15T14:40:03;5.88;;;5.22;;
15295;SDS011;7749;49.964;7.890;2023-05-15T14:42:33;6.60;;;6.00;;
15295;SDS011;7749;49.964;7.890;2023-05-15T14:45:00;6.30;;;5.70;;
15295;SDS011;7749;49.964;7.890;2023-05-15T14:47:28;6.32;;;5.80;;
15295;SDS011;7749;49.964;7.890;2023-05-15T14:49:56;6.32;;;5.28;;
15295;SDS011;7749;49.964;7.890;2023-05-15T14:52:24;7.25;;;6.15;;
15295;SDS011;7749;49.964;7.890;2023-05-15T14:54:51;8.02;;;6.05;;
15295;SDS011;7749;49.964;7.890;2023-05-15T14:57:34;8.60;;;7.80;;
15295;SDS011;7749;49.964;7.890;2023-05-15T15:00:03;7.80;;;6.88;;
15295;SDS011;7749;49.964;7.890;2023-05-15T15:02:41;7.45;;;6.50;;
15295;SDS011;7749;49.964;7.890;2023-05-15T15:05:08;7.93;;;7.15;;
15295;SDS011;7749;49.964;7.890;2023-05-15T15:10:39;7.75;;;7.00;;
15295;SDS011;7749;49.964;7.890;2023-05-15T15:13:07;8.73;;;7.82;;
15295;SDS011;7749;49.964;7.890;2023-05-15T15:15:41;8.48;;;7.65;;
15295;SDS011;7749;49.964;7.890;2023-05-15T15:18:09;8.23;;;7.15;;
15295;SDS011;7749;49.964;7.890;2023-05-15T15:20:37;8.15;;;7.35;;
15295;SDS011;7749;49.964;7.890;2023-05-15T15:23:04;8.43;;;7.50;;
15295;SDS011;7749;49.964;7.890;2023-05-15T15:25:32;7.18;;;6.38;;
15295;SDS011;7749;49.964;7.890;2023-05-15T15:28:00;9.10;;;6.40;;
15295;SDS011;7749;49.964;7.890;2023-05-15T15:30:28;9.50;;;6.75;;
15295;SDS011;7749;49.964;7.890;2023-05-15T15:32:55;10.68;;;7.70;;
15295;SDS011;7749;49.964;7.890;2023-05-15T15:35:24;8.60;;;7.70;;
15295;SDS011;7749;49.964;7.890;2023-05-15T15:37:54;7.78;;;6.97;;
15295;SDS011;7749;49.964;7.890;2023-05-15T15:40:22;7.63;;;6.82;;
15295;SDS011;7749;49.964;7.890;2023-05-15T15:42:50;6.38;;;5.68;;
15295;SDS011;7749;49.964;7.890;2023-05-15T15:45:20;7.95;;;5.55;;
15295;SDS011;7749;49.964;7.890;2023-05-15T15:47:47;6.43;;;5.82;;
15295;SDS011;7749;49.964;7.890;2023-05-15T15:50:15;7.97;;;6.07;;
15295;SDS011;7749;49.964;7.890;2023-05-15T15:52:49;9.07;;;8.18;;
15295;SDS011;7749;49.964;7.890;2023-05-15T15:55:17;9.55;;;6.75;;
15295;SDS011;7749;49.964;7.890;2023-05-15T15:57:44;6.63;;;6.03;;
15295;SDS011;7749;49.964;7.890;2023-05-15T16:00:12;6.30;;;4.82;;
15295;SDS011;7749;49.964;7.890;2023-05-15T16:02:40;8.07;;;5.18;;
15295;SDS011;7749;49.964;7.890;2023-05-15T16:05:07;6.88;;;5.40;;
15295;SDS011;7749;49.964;7.890;2023-05-15T16:07:35;5.95;;;5.38;;
15295;SDS011;7749;49.964;7.890;2023-05-15T16:10:03;8.25;;;5.70;;
15295;SDS011;7749;49.964;7.890;2023-05-15T16:12:39;6.20;;;5.65;;